createdAt,value
2023-05-06T00:00:58.250Z,15.32
2023-05-06T00:03:25.912Z,15.19
2023-05-06T00:05:53.652Z,15.27
2023-05-06T00:08:21.362Z,15.05
2023-05-06T00:10:48.800Z,15.07
2023-05-06T00:13:16.626Z,15.24
2023-05-06T00:15:44.352Z,15.24
2023-05-06T00:18:11.946Z,15.15
2023-05-06T00:20:39.416Z,15.09
2023-05-06T00:23:06.857Z,14.97
2023-05-06T00:25:34.275Z,15.06
2023-05-06T00:28:01.802Z,14.86
2023-05-06T00:30:29.597Z,15.05
2023-05-06T00:32:57.288Z,15.07
2023-05-06T00:35:24.904Z,15.17
2023-05-06T00:38:08.532Z,15.15
2023-05-06T00:40:36.604Z,14.97
2023-05-06T00:43:04.519Z,15.04
2023-05-06T00:45:32.192Z,15.09
2023-05-06T00:48:00.302Z,15.12
2023-05-06T00:50:29.840Z,15.25
2023-05-06T00:52:58.647Z,15.25
2023-05-06T00:55:26.467Z,15.00
2023-05-06T00:57:54.745Z,15.09
2023-05-06T01:00:22.554Z,15.05
2023-05-06T01:02:50.176Z,15.09
2023-05-06T01:05:21.216Z,15.10
2023-05-06T01:08:13.385Z,15.08
2023-05-06T01:10:56.960Z,14.92
2023-05-06T01:13:34.651Z,14.90
2023-05-06T01:16:04.263Z,14.83
2023-05-06T01:18:32.910Z,14.85
2023-05-06T01:21:02.041Z,14.81
2023-05-06T01:23:29.514Z,14.89
2023-05-06T01:25:57.151Z,14.94
2023-05-06T01:28:24.530Z,14.90
2023-05-06T01:31:05.676Z,14.88
2023-05-06T01:33:48.574Z,14.99
2023-05-06T01:36:46.907Z,15.04
2023-05-06T01:39:20.546Z,14.89
2023-05-06T01:41:50.375Z,14.95
2023-05-06T01:44:21.653Z,15.02
2023-05-06T01:46:50.258Z,14.99
2023-05-06T01:49:20.369Z,15.02
2023-05-06T01:51:52.651Z,14.99
2023-05-06T01:54:20.301Z,14.92
2023-05-06T01:56:47.829Z,14.96
2023-05-06T01:59:15.879Z,15.01
2023-05-06T02:01:43.426Z,14.90
2023-05-06T02:04:11.163Z,15.00
2023-05-06T02:06:38.862Z,14.97
2023-05-06T02:09:06.639Z,14.98
2023-05-06T02:11:39.344Z,14.94
2023-05-06T02:14:08.404Z,14.98
2023-05-06T02:16:36.928Z,15.02
2023-05-06T02:19:06.089Z,14.88
2023-05-06T02:21:33.534Z,14.88
2023-05-06T02:24:01.057Z,14.93
2023-05-06T02:26:28.493Z,14.94
2023-05-06T02:28:56.070Z,14.89
2023-05-06T02:31:23.723Z,14.91
2023-05-06T02:33:51.339Z,14.80
2023-05-06T02:36:18.758Z,14.92
2023-05-06T02:38:47.609Z,14.92
2023-05-06T02:41:15.223Z,14.87
2023-05-06T02:43:42.692Z,14.92
2023-05-06T02:46:10.196Z,14.81
2023-05-06T02:48:37.732Z,14.83
2023-05-06T02:51:06.299Z,14.90
2023-05-06T02:53:33.986Z,14.84
2023-05-06T02:56:01.420Z,14.81
2023-05-06T02:58:29.341Z,14.84
2023-05-06T03:00:56.867Z,14.81
2023-05-06T03:03:24.434Z,14.79
2023-05-06T03:05:51.804Z,14.79
2023-05-06T03:08:19.538Z,14.78
2023-05-06T03:10:47.197Z,14.77
2023-05-06T03:13:17.649Z,14.86
2023-05-06T03:15:45.266Z,14.86
2023-05-06T03:18:12.719Z,14.84
2023-05-06T03:20:40.761Z,14.80
2023-05-06T03:23:08.319Z,14.72
2023-05-06T03:25:35.946Z,14.86
2023-05-06T03:28:03.582Z,14.72
2023-05-06T03:30:32.440Z,14.76
2023-05-06T03:33:02.783Z,14.84
2023-05-06T03:35:33.550Z,14.80
2023-05-06T03:38:01.919Z,14.84
2023-05-06T03:40:37.935Z,14.77
2023-05-06T03:43:05.917Z,14.65
2023-05-06T03:45:33.774Z,14.69
2023-05-06T03:48:03.921Z,14.62
2023-05-06T03:50:33.333Z,14.50
2023-05-06T03:53:00.950Z,14.51
2023-05-06T03:55:31.137Z,14.61
2023-05-06T03:57:58.892Z,14.59
2023-05-06T04:00:26.577Z,14.64
2023-05-06T04:02:55.075Z,14.56
2023-05-06T04:05:29.396Z,14.61
2023-05-06T04:07:58.034Z,14.62
2023-05-06T04:10:25.606Z,14.58
2023-05-06T04:12:56.287Z,14.57
2023-05-06T04:15:32.080Z,14.54
2023-05-06T04:18:01.691Z,14.53
2023-05-06T04:20:29.869Z,14.47
2023-05-06T04:22:57.589Z,14.46
2023-05-06T04:25:26.014Z,14.38
2023-05-06T04:27:53.562Z,14.38
2023-05-06T04:30:21.592Z,14.25
2023-05-06T04:32:50.620Z,14.40
2023-05-06T04:35:18.160Z,14.43
2023-05-06T04:37:45.929Z,14.47
2023-05-06T04:40:19.692Z,14.41
2023-05-06T04:42:49.691Z,14.47
2023-05-06T04:45:22.424Z,14.49
2023-05-06T04:47:52.460Z,14.40
2023-05-06T04:50:20.421Z,14.33
2023-05-06T04:52:48.031Z,14.33
2023-05-06T04:55:17.542Z,14.34
2023-05-06T04:57:48.970Z,14.43
2023-05-06T05:00:17.559Z,14.36
2023-05-06T05:02:45.159Z,14.33
2023-05-06T05:05:14.592Z,14.35
2023-05-06T05:07:45.117Z,14.38
2023-05-06T05:10:12.821Z,14.39
2023-05-06T05:12:40.376Z,14.49
2023-05-06T05:15:08.498Z,14.59
2023-05-06T05:17:36.259Z,14.68
2023-05-06T05:20:05.836Z,14.63
2023-05-06T05:22:33.437Z,14.72
2023-05-06T05:25:01.550Z,14.68
2023-05-06T05:27:29.323Z,14.61
2023-05-06T05:29:58.059Z,14.64
2023-05-06T05:32:25.682Z,14.62
2023-05-06T05:34:53.327Z,14.63
2023-05-06T05:37:20.972Z,14.70
2023-05-06T05:39:49.385Z,14.73
2023-05-06T05:42:18.135Z,14.72
2023-05-06T05:44:47.203Z,14.74
2023-05-06T05:47:15.780Z,14.88
2023-05-06T05:49:43.378Z,14.87
2023-05-06T05:52:10.890Z,15.04
2023-05-06T05:54:38.715Z,15.08
2023-05-06T05:57:06.853Z,15.15
2023-05-06T05:59:34.812Z,15.31
2023-05-06T06:02:05.897Z,15.32
2023-05-06T06:04:34.091Z,15.31
2023-05-06T06:07:04.693Z,15.36
2023-05-06T06:09:36.324Z,15.41
2023-05-06T06:12:05.412Z,15.44
2023-05-06T06:14:34.911Z,15.47
2023-05-06T06:17:02.686Z,15.53
2023-05-06T06:19:30.507Z,15.49
2023-05-06T06:21:58.163Z,15.49
2023-05-06T06:24:26.505Z,15.63
2023-05-06T06:26:54.454Z,15.64
2023-05-06T06:29:21.870Z,15.73
2023-05-06T06:31:49.559Z,15.77
2023-05-06T06:34:20.162Z,15.76
2023-05-06T06:36:48.000Z,15.69
2023-05-06T06:39:15.760Z,15.76
2023-05-06T06:41:43.546Z,15.77
2023-05-06T06:44:12.657Z,15.76
2023-05-06T06:46:52.137Z,15.84
2023-05-06T06:49:29.103Z,16.09
2023-05-06T06:52:00.674Z,16.15
2023-05-06T06:54:28.116Z,16.14
2023-05-06T06:56:58.597Z,16.20
2023-05-06T06:59:26.103Z,16.37
2023-05-06T07:01:53.496Z,16.46
2023-05-06T07:04:21.269Z,16.57
2023-05-06T07:06:48.884Z,16.74
2023-05-06T07:09:16.507Z,16.90
2023-05-06T07:11:43.897Z,16.96
2023-05-06T07:14:12.060Z,17.00
2023-05-06T07:16:39.474Z,17.20
2023-05-06T07:19:07.397Z,17.24
2023-05-06T07:21:35.041Z,17.39
2023-05-06T07:24:02.596Z,17.47
2023-05-06T07:26:30.008Z,17.54
2023-05-06T07:28:57.586Z,17.63
2023-05-06T07:31:25.223Z,17.54
2023-05-06T07:33:52.793Z,17.44
2023-05-06T07:36:20.340Z,17.27
2023-05-06T07:38:47.890Z,17.18
2023-05-06T07:41:15.407Z,17.07
2023-05-06T07:43:42.868Z,16.94
2023-05-06T07:46:11.001Z,16.92
2023-05-06T07:48:38.762Z,16.80
2023-05-06T07:51:06.231Z,16.75
2023-05-06T07:53:33.868Z,16.62
2023-05-06T07:56:02.633Z,16.58
2023-05-06T07:58:31.603Z,16.62
2023-05-06T08:01:00.037Z,16.55
2023-05-06T08:03:27.877Z,16.56
2023-05-06T08:05:55.957Z,16.49
2023-05-06T08:08:24.017Z,16.56
2023-05-06T08:10:51.498Z,16.43
2023-05-06T08:13:19.084Z,16.46
2023-05-06T08:15:46.790Z,16.40
2023-05-06T08:18:22.191Z,16.41
2023-05-06T08:20:51.005Z,16.36
2023-05-06T08:23:18.641Z,16.33
2023-05-06T08:25:46.703Z,16.32
2023-05-06T08:28:14.156Z,16.32
2023-05-06T08:30:41.578Z,16.27
2023-05-06T08:33:09.124Z,16.41
2023-05-06T08:35:36.891Z,16.23
2023-05-06T08:38:04.369Z,16.18
2023-05-06T08:40:33.862Z,16.16
2023-05-06T08:43:04.207Z,16.12
2023-05-06T08:45:33.087Z,16.09
2023-05-06T08:48:00.697Z,16.16
2023-05-06T08:50:28.617Z,16.27
2023-05-06T08:52:56.112Z,16.31
2023-05-06T08:55:26.630Z,16.56
2023-05-06T08:57:54.935Z,16.65
2023-05-06T09:00:22.465Z,16.82
2023-05-06T09:02:50.132Z,16.97
2023-05-06T09:05:17.798Z,17.05
2023-05-06T09:07:52.390Z,17.05
2023-05-06T09:10:22.728Z,17.01
2023-05-06T09:12:53.645Z,16.99
2023-05-06T09:15:25.997Z,16.98
2023-05-06T09:17:55.506Z,16.83
2023-05-06T09:20:23.218Z,16.83
2023-05-06T09:22:54.087Z,16.81
2023-05-06T09:25:21.580Z,16.79
2023-05-06T09:27:48.965Z,16.75
2023-05-06T09:30:16.635Z,16.64
2023-05-06T09:32:44.321Z,16.72
2023-05-06T09:35:12.029Z,16.76
2023-05-06T09:37:39.648Z,16.89
2023-05-06T09:40:09.366Z,16.88
2023-05-06T09:42:37.011Z,16.97
2023-05-06T09:45:08.923Z,17.07
2023-05-06T09:47:36.733Z,17.20
2023-05-06T09:50:04.911Z,17.33
2023-05-06T09:52:32.405Z,17.38
2023-05-06T09:55:01.610Z,17.48
2023-05-06T09:57:31.172Z,17.55
2023-05-06T10:00:00.634Z,17.67
2023-05-06T10:02:29.172Z,17.74
2023-05-06T10:04:57.511Z,17.90
2023-05-06T10:07:28.907Z,18.17
2023-05-06T10:09:59.066Z,18.58
2023-05-06T10:12:26.746Z,19.01
2023-05-06T10:14:54.637Z,19.27
2023-05-06T10:17:26.024Z,19.57
2023-05-06T10:19:58.959Z,19.79
2023-05-06T10:22:49.349Z,19.97
2023-05-06T10:25:22.349Z,20.18
2023-05-06T10:27:50.354Z,20.36
2023-05-06T10:30:19.721Z,20.53
2023-05-06T10:32:47.397Z,20.76
2023-05-06T10:35:32.766Z,21.12
2023-05-06T10:38:03.242Z,21.36
2023-05-06T10:40:31.883Z,21.56
2023-05-06T10:43:34.748Z,21.79
2023-05-06T10:46:12.105Z,21.94
2023-05-06T10:49:01.240Z,21.99
2023-05-06T10:51:29.148Z,21.96
2023-05-06T10:54:02.828Z,21.94
2023-05-06T10:56:33.467Z,21.88
2023-05-06T10:59:12.429Z,21.74
2023-05-06T11:01:41.961Z,21.55
2023-05-06T11:04:11.518Z,21.28
2023-05-06T11:06:46.642Z,21.00
2023-05-06T11:09:20.638Z,20.94
2023-05-06T11:11:51.099Z,20.95
2023-05-06T11:14:29.798Z,21.09
2023-05-06T11:17:01.615Z,21.40
2023-05-06T11:19:33.986Z,21.59
2023-05-06T11:22:04.043Z,21.78
2023-05-06T11:24:39.064Z,21.94
2023-05-06T11:27:07.217Z,22.23
2023-05-06T11:29:34.616Z,22.57
2023-05-06T11:32:03.804Z,22.72
2023-05-06T11:34:32.732Z,22.78
2023-05-06T11:37:05.781Z,22.84
2023-05-06T11:39:39.665Z,22.92
2023-05-06T11:42:09.331Z,23.01
2023-05-06T11:44:38.810Z,23.19
2023-05-06T11:47:08.944Z,23.34
2023-05-06T11:49:36.941Z,23.34
2023-05-06T11:52:04.699Z,23.29
2023-05-06T11:54:36.237Z,22.96
2023-05-06T11:57:03.877Z,22.87
2023-05-06T11:59:32.616Z,22.79
2023-05-06T12:02:02.477Z,22.81
2023-05-06T12:04:46.530Z,22.72
2023-05-06T12:07:15.526Z,22.70
2023-05-06T12:09:50.653Z,22.60
2023-05-06T12:12:22.666Z,22.42
2023-05-06T12:14:52.696Z,22.15
2023-05-06T12:17:20.421Z,22.05
2023-05-06T12:19:48.261Z,21.92
2023-05-06T12:22:20.743Z,21.86
2023-05-06T12:24:49.411Z,21.74
2023-05-06T12:27:33.813Z,21.31
2023-05-06T12:30:02.723Z,21.26
2023-05-06T12:32:31.250Z,21.36
2023-05-06T12:35:00.628Z,21.43
2023-05-06T12:37:30.006Z,21.60
2023-05-06T12:39:59.341Z,21.74
2023-05-06T12:42:27.620Z,21.89
2023-05-06T12:44:56.479Z,22.06
2023-05-06T12:47:25.896Z,22.05
2023-05-06T12:49:59.179Z,22.11
2023-05-06T12:52:29.988Z,22.17
2023-05-06T12:55:00.850Z,22.24
2023-05-06T12:57:28.238Z,22.20
2023-05-06T12:59:56.533Z,22.14
2023-05-06T13:02:24.092Z,21.98
2023-05-06T13:04:51.741Z,21.91
2023-05-06T13:07:19.227Z,21.84
2023-05-06T13:09:46.818Z,21.78
2023-05-06T13:12:14.295Z,21.63
2023-05-06T13:14:41.744Z,21.54
2023-05-06T13:17:09.361Z,21.43
2023-05-06T13:19:37.360Z,21.40
2023-05-06T13:22:04.948Z,21.43
2023-05-06T13:24:32.603Z,21.38
2023-05-06T13:27:01.465Z,21.27
2023-05-06T13:29:29.811Z,21.15
2023-05-06T13:31:57.782Z,21.12
2023-05-06T13:34:26.127Z,21.09
2023-05-06T13:36:54.878Z,21.07
2023-05-06T13:39:23.160Z,21.06
2023-05-06T13:41:51.299Z,21.08
2023-05-06T13:44:22.108Z,21.12
2023-05-06T13:46:49.723Z,21.19
2023-05-06T13:49:18.684Z,21.23
2023-05-06T13:51:46.242Z,21.22
2023-05-06T13:54:13.674Z,21.16
2023-05-06T13:56:41.305Z,21.05
2023-05-06T13:59:10.103Z,21.00
2023-05-06T14:01:38.773Z,20.92
2023-05-06T14:04:06.362Z,20.73
2023-05-06T14:06:34.107Z,20.63
2023-05-06T14:09:01.757Z,20.51
2023-05-06T14:11:29.331Z,20.33
2023-05-06T14:13:57.430Z,20.24
2023-05-06T14:16:25.028Z,20.26
2023-05-06T14:18:52.830Z,20.24
2023-05-06T14:21:20.403Z,20.12
2023-05-06T14:23:47.781Z,20.03
2023-05-06T14:26:15.361Z,19.99
2023-05-06T14:28:42.739Z,19.96
2023-05-06T14:31:10.341Z,19.64
2023-05-06T14:33:38.750Z,19.29
2023-05-06T14:36:06.710Z,19.20
2023-05-06T14:38:34.234Z,19.41
2023-05-06T14:41:01.741Z,19.42
2023-05-06T14:43:29.160Z,19.58
2023-05-06T14:45:56.875Z,19.88
2023-05-06T14:48:25.524Z,19.95
2023-05-06T14:50:53.228Z,20.13
2023-05-06T14:53:20.698Z,20.36
2023-05-06T14:55:49.009Z,20.36
2023-05-06T14:58:16.475Z,20.34
2023-05-06T15:00:44.988Z,20.31
2023-05-06T15:03:12.548Z,20.26
2023-05-06T15:05:40.242Z,20.27
2023-05-06T15:08:07.811Z,20.25
2023-05-06T15:10:35.293Z,20.30
2023-05-06T15:13:03.059Z,20.46
2023-05-06T15:15:30.831Z,20.62
2023-05-06T15:17:58.366Z,20.74
2023-05-06T15:20:26.219Z,20.92
2023-05-06T15:22:53.650Z,21.02
2023-05-06T15:25:34.243Z,21.17
2023-05-06T15:28:05.106Z,21.12
2023-05-06T15:30:32.747Z,21.00
2023-05-06T15:33:01.856Z,20.86
2023-05-06T15:35:31.134Z,20.71
2023-05-06T15:37:59.228Z,20.65
2023-05-06T15:40:27.213Z,20.65
2023-05-06T15:42:55.321Z,20.66
2023-05-06T15:45:22.859Z,20.65
2023-05-06T15:47:50.403Z,20.58
2023-05-06T15:50:32.529Z,20.51
2023-05-06T15:53:02.241Z,20.45
2023-05-06T15:55:34.595Z,20.42
2023-05-06T15:58:08.894Z,20.51
2023-05-06T16:00:36.432Z,20.53
2023-05-06T16:03:04.149Z,20.51
2023-05-06T16:05:32.043Z,20.57
2023-05-06T16:07:59.825Z,20.59
2023-05-06T16:10:27.303Z,20.59
2023-05-06T16:12:54.880Z,20.57
2023-05-06T16:15:22.341Z,20.54
2023-05-06T16:17:49.896Z,20.56
2023-05-06T16:20:17.520Z,20.55
2023-05-06T16:22:50.440Z,20.53
2023-05-06T16:25:17.901Z,20.44
2023-05-06T16:27:45.404Z,20.41
2023-05-06T16:30:13.304Z,20.41
2023-05-06T16:32:40.759Z,20.30
2023-05-06T16:35:09.553Z,20.28
2023-05-06T16:37:37.115Z,20.26
2023-05-06T16:40:05.056Z,20.29
2023-05-06T16:42:32.519Z,20.23
2023-05-06T16:45:00.134Z,20.27
2023-05-06T16:47:27.825Z,20.27
2023-05-06T16:49:55.748Z,20.27
2023-05-06T16:52:23.338Z,20.32
2023-05-06T16:54:51.460Z,20.41
2023-05-06T16:57:19.274Z,20.36
2023-05-06T16:59:46.754Z,20.32
2023-05-06T17:02:14.301Z,20.22
2023-05-06T17:04:41.829Z,20.12
2023-05-06T17:07:11.291Z,20.07
2023-05-06T17:09:39.304Z,19.99
2023-05-06T17:12:07.954Z,19.92
2023-05-06T17:14:35.810Z,19.78
2023-05-06T17:17:05.442Z,19.74
2023-05-06T17:19:33.793Z,19.82
2023-05-06T17:22:01.238Z,19.74
2023-05-06T17:24:28.788Z,19.69
2023-05-06T17:26:56.311Z,19.67
2023-05-06T17:29:23.956Z,19.51
2023-05-06T17:31:51.562Z,19.42
2023-05-06T17:34:19.186Z,19.40
2023-05-06T17:36:46.652Z,19.37
2023-05-06T17:39:14.371Z,19.27
2023-05-06T17:41:41.802Z,19.20
2023-05-06T17:44:09.324Z,19.13
2023-05-06T17:46:37.119Z,19.11
2023-05-06T17:49:04.646Z,19.07
2023-05-06T17:51:32.133Z,19.04
2023-05-06T17:53:59.744Z,18.98
2023-05-06T17:56:27.327Z,19.00
2023-05-06T17:58:55.084Z,19.06
2023-05-06T18:01:22.647Z,19.03
2023-05-06T18:03:50.290Z,18.77
2023-05-06T18:06:18.786Z,18.71
2023-05-06T18:08:46.361Z,18.69
2023-05-06T18:11:13.792Z,18.63
2023-05-06T18:13:41.353Z,18.66
2023-05-06T18:16:08.968Z,18.63
2023-05-06T18:18:36.831Z,18.56
2023-05-06T18:21:04.266Z,18.46
2023-05-06T18:23:32.009Z,18.37
2023-05-06T18:25:59.549Z,18.41
2023-05-06T18:28:27.130Z,18.27
2023-05-06T18:30:54.593Z,18.24
2023-05-06T18:33:22.301Z,18.26
2023-05-06T18:35:49.786Z,18.16
2023-05-06T18:38:17.251Z,18.22
2023-05-06T18:40:47.434Z,18.23
2023-05-06T18:43:14.865Z,18.16
2023-05-06T18:45:43.013Z,18.19
2023-05-06T18:48:10.986Z,18.16
2023-05-06T18:50:38.590Z,18.16
2023-05-06T18:53:06.110Z,18.13
2023-05-06T18:55:33.707Z,18.15
2023-05-06T18:58:05.710Z,18.11
2023-05-06T19:00:33.514Z,18.20
2023-05-06T19:03:01.198Z,18.15
2023-05-06T19:05:28.765Z,18.14
2023-05-06T19:07:56.238Z,18.12
2023-05-06T19:10:23.889Z,18.08
2023-05-06T19:12:51.629Z,18.04
2023-05-06T19:15:19.261Z,18.02
2023-05-06T19:17:46.618Z,17.95
2023-05-06T19:20:14.495Z,17.95
2023-05-06T19:22:42.162Z,17.86
2023-05-06T19:25:10.629Z,17.78
2023-05-06T19:27:38.599Z,17.75
2023-05-06T19:30:07.414Z,17.71
2023-05-06T19:32:34.886Z,17.67
2023-05-06T19:35:08.164Z,17.60
2023-05-06T19:37:42.348Z,17.56
2023-05-06T19:40:10.873Z,17.56
2023-05-06T19:42:38.312Z,17.51
2023-05-06T19:45:09.467Z,17.47
2023-05-06T19:47:37.492Z,17.41
2023-05-06T19:50:06.266Z,17.40
2023-05-06T19:52:34.781Z,17.36
2023-05-06T19:55:03.343Z,17.29
2023-05-06T19:57:31.052Z,17.34
2023-05-06T19:59:58.475Z,17.30
2023-05-06T20:02:26.449Z,17.24
2023-05-06T20:04:54.028Z,17.18
2023-05-06T20:07:23.000Z,17.19
2023-05-06T20:09:55.274Z,17.08
2023-05-06T20:12:23.704Z,16.99
2023-05-06T20:14:51.456Z,16.92
2023-05-06T20:17:19.085Z,16.87
2023-05-06T20:19:46.885Z,16.79
2023-05-06T20:22:14.813Z,16.73
2023-05-06T20:24:43.127Z,16.67
2023-05-06T20:27:10.929Z,16.59
2023-05-06T20:29:38.295Z,16.56
2023-05-06T20:32:05.864Z,16.53
2023-05-06T20:34:33.419Z,16.50
2023-05-06T20:37:01.670Z,16.46
2023-05-06T20:39:29.146Z,16.44
2023-05-06T20:41:56.766Z,16.41
2023-05-06T20:44:25.123Z,16.45
2023-05-06T20:46:52.885Z,16.43
2023-05-06T20:49:20.416Z,16.44
2023-05-06T20:51:48.024Z,16.42
2023-05-06T20:54:15.559Z,16.39
2023-05-06T20:56:43.087Z,16.28
2023-05-06T20:59:10.961Z,16.22
2023-05-06T21:01:38.663Z,16.15
2023-05-06T21:04:06.479Z,16.09
2023-05-06T21:06:34.094Z,16.02
2023-05-06T21:09:01.493Z,16.03
2023-05-06T21:11:29.113Z,16.07
2023-05-06T21:13:57.905Z,16.12
2023-05-06T21:16:25.770Z,16.08
2023-05-06T21:18:53.420Z,16.12
2023-05-06T21:21:24.542Z,15.97
2023-05-06T21:23:52.092Z,15.91
2023-05-06T21:26:19.578Z,15.87
2023-05-06T21:28:51.378Z,15.85
2023-05-06T21:31:26.605Z,15.87
2023-05-06T21:33:55.903Z,15.82
2023-05-06T21:36:23.640Z,15.83
2023-05-06T21:39:17.677Z,15.76
2023-05-06T21:41:45.580Z,15.74
2023-05-06T21:44:13.220Z,15.72
2023-05-06T21:46:41.200Z,15.73
2023-05-06T21:49:08.607Z,15.78
2023-05-06T21:51:36.976Z,15.83
2023-05-06T21:54:04.637Z,15.93
2023-05-06T21:56:32.148Z,15.99
2023-05-06T21:58:59.705Z,16.02
2023-05-06T22:01:27.417Z,16.06
2023-05-06T22:03:55.317Z,16.09
2023-05-06T22:06:23.130Z,16.06
2023-05-06T22:08:50.600Z,16.11
2023-05-06T22:11:18.313Z,16.15
2023-05-06T22:13:45.779Z,16.08
2023-05-06T22:16:13.391Z,16.07
2023-05-06T22:18:41.669Z,16.11
2023-05-06T22:21:09.953Z,16.14
2023-05-06T22:23:40.598Z,16.16
2023-05-06T22:26:08.213Z,16.19
2023-05-06T22:28:36.098Z,16.28
2023-05-06T22:31:03.748Z,16.23
2023-05-06T22:33:31.327Z,16.27
2023-05-06T22:35:58.933Z,16.27
2023-05-06T22:38:26.399Z,16.12
2023-05-06T22:40:53.957Z,16.06
2023-05-06T22:43:21.506Z,16.02
2023-05-06T22:45:49.113Z,16.06
2023-05-06T22:48:16.733Z,16.02
2023-05-06T22:50:44.284Z,16.04
2023-05-06T22:53:15.399Z,16.02
2023-05-06T22:55:43.127Z,16.09
2023-05-06T22:58:10.507Z,16.08
2023-05-06T23:00:38.114Z,16.04
2023-05-06T23:03:06.129Z,16.07
2023-05-06T23:05:33.704Z,16.19
2023-05-06T23:08:01.204Z,16.16
2023-05-06T23:10:28.680Z,16.10
2023-05-06T23:13:01.614Z,16.07
2023-05-06T23:15:29.573Z,16.09
2023-05-06T23:17:57.118Z,16.11
2023-05-06T23:20:24.838Z,16.15
2023-05-06T23:22:52.660Z,16.01
2023-05-06T23:25:20.374Z,16.11
2023-05-06T23:27:47.900Z,16.09
2023-05-06T23:30:15.717Z,16.14
2023-05-06T23:32:43.144Z,16.00
2023-05-06T23:35:11.306Z,15.98
2023-05-06T23:37:38.913Z,16.00
2023-05-06T23:40:07.336Z,16.04
2023-05-06T23:42:34.821Z,16.00
2023-05-06T23:45:02.328Z,15.94
2023-05-06T23:47:29.863Z,15.94
2023-05-06T23:49:58.901Z,16.02
2023-05-06T23:52:26.906Z,16.03
2023-05-06T23:54:54.496Z,16.03
2023-05-06T23:57:21.887Z,15.99
2023-05-06T23:59:49.475Z,16.03
